NWK1673 YMHB-YPPH
Flight info
| Callsign | NWK1673 |
|---|---|
| Flight time | N/A |
| Altitude | 34000 |
| Route | HB DCT RIBLI DCT TUNGO L513 TAPAX DCT SOLUS DCT PH |
| Aircraft | A319/M-SDE3FGHIRWY/LB1 |
Departure
| Time | 2026-05-06 22:14 |
|---|---|
| Airport | Hobart International Airport (YMHB) |
Arrival
| Time | N/A |
|---|---|
| Airport | Perth International Airport (YPPH) |
| Time | Latitude | Longitude | Altitude | Speed | Heading |
|---|---|---|---|---|---|
| 2026-05-06 21:46 | -42.83685 | 147.50621 | 22 ft | 0 kts | 225° |
| 2026-05-06 22:03 | -42.83684 | 147.50623 | 22 ft | 2 kts | 225° |
| 2026-05-06 22:03 | -42.83665 | 147.50646 | 22 ft | 4 kts | 212° |
| 2026-05-06 22:03 | -42.83641 | 147.50660 | 23 ft | 4 kts | 174° |
| 2026-05-06 22:03 | -42.83626 | 147.50653 | 23 ft | 1 kts | 135° |
| 2026-05-06 22:04 | -42.83624 | 147.50650 | 23 ft | 0 kts | 135° |
| 2026-05-06 22:06 | -42.83624 | 147.50651 | 23 ft | 0 kts | 135° |
| 2026-05-06 22:07 | -42.83630 | 147.50659 | 22 ft | 2 kts | 135° |
| 2026-05-06 22:07 | -42.83647 | 147.50682 | 22 ft | 4 kts | 135° |
| 2026-05-06 22:07 | -42.83673 | 147.50716 | 22 ft | 6 kts | 135° |
| 2026-05-06 22:07 | -42.83701 | 147.50768 | 22 ft | 7 kts | 106° |
| 2026-05-06 22:08 | -42.83679 | 147.50835 | 22 ft | 9 kts | 55° |
| 2026-05-06 22:08 | -42.83689 | 147.50913 | 22 ft | 10 kts | 131° |
| 2026-05-06 22:08 | -42.83740 | 147.50981 | 22 ft | 11 kts | 136° |
| 2026-05-06 22:08 | -42.83796 | 147.51057 | 24 ft | 12 kts | 135° |
| 2026-05-06 22:09 | -42.83849 | 147.51133 | 24 ft | 8 kts | 133° |
| 2026-05-06 22:09 | -42.83849 | 147.51208 | 22 ft | 9 kts | 52° |
| 2026-05-06 22:09 | -42.83796 | 147.51270 | 22 ft | 11 kts | 40° |
| 2026-05-06 22:09 | -42.83760 | 147.51358 | 23 ft | 12 kts | 94° |
| 2026-05-06 22:10 | -42.83809 | 147.51448 | 23 ft | 13 kts | 139° |
| 2026-05-06 22:10 | -42.83877 | 147.51533 | 24 ft | 14 kts | 134° |
| 2026-05-06 22:10 | -42.83947 | 147.51629 | 22 ft | 15 kts | 135° |
| 2026-05-06 22:10 | -42.84024 | 147.51733 | 22 ft | 16 kts | 134° |
| 2026-05-06 22:11 | -42.84107 | 147.51847 | 24 ft | 17 kts | 135° |
| 2026-05-06 22:11 | -42.84195 | 147.51965 | 23 ft | 19 kts | 135° |
| 2026-05-06 22:11 | -42.84290 | 147.52092 | 23 ft | 20 kts | 136° |
| 2026-05-06 22:11 | -42.84389 | 147.52225 | 23 ft | 18 kts | 135° |
| 2026-05-06 22:12 | -42.84463 | 147.52302 | 22 ft | 13 kts | 162° |
| 2026-05-06 22:12 | -42.84553 | 147.52335 | 22 ft | 12 kts | 159° |
| 2026-05-06 22:12 | -42.84592 | 147.52395 | 22 ft | 8 kts | 94° |
| 2026-05-06 22:12 | -42.84551 | 147.52433 | 22 ft | 8 kts | 340° |
| 2026-05-06 22:13 | -42.84502 | 147.52377 | 23 ft | 13 kts | 316° |
| 2026-05-06 22:13 | -42.84257 | 147.52050 | 23 ft | 87 kts | 314° |
| 2026-05-06 22:13 | -42.83667 | 147.51240 | 22 ft | 152 kts | 314° |
| 2026-05-06 22:13 | -42.82789 | 147.50073 | 149 ft | 190 kts | 314° |
| 2026-05-06 22:14 | -42.81852 | 147.48927 | 1043 ft | 176 kts | 314° |
| 2026-05-06 22:14 | -42.80987 | 147.47774 | 1873 ft | 174 kts | 310° |
| 2026-05-06 22:14 | -42.80114 | 147.46551 | 2304 ft | 188 kts | 309° |
| 2026-05-06 22:14 | -42.79177 | 147.45231 | 2730 ft | 197 kts | 308° |
| 2026-05-06 22:15 | -42.78211 | 147.43875 | 3260 ft | 204 kts | 308° |
| 2026-05-06 22:15 | -42.77164 | 147.42404 | 3533 ft | 229 kts | 308° |
| 2026-05-06 22:15 | -42.75998 | 147.40772 | 3963 ft | 250 kts | 309° |
| 2026-05-06 22:15 | -42.74757 | 147.39056 | 4733 ft | 258 kts | 309° |
| 2026-05-06 22:16 | -42.73486 | 147.37310 | 5550 ft | 262 kts | 309° |
| 2026-05-06 22:16 | -42.72188 | 147.35539 | 6438 ft | 266 kts | 309° |
| 2026-05-06 22:16 | -42.70875 | 147.33751 | 7242 ft | 268 kts | 310° |
| 2026-05-06 22:16 | -42.69550 | 147.31946 | 8070 ft | 271 kts | 310° |
| 2026-05-06 22:17 | -42.68215 | 147.30124 | 8890 ft | 273 kts | 310° |
| 2026-05-06 22:17 | -42.66868 | 147.28285 | 9720 ft | 276 kts | 311° |
| 2026-05-06 22:17 | -42.65499 | 147.26417 | 10352 ft | 285 kts | 311° |
| 2026-05-06 22:17 | -42.64067 | 147.24457 | 10545 ft | 307 kts | 312° |
| 2026-05-06 22:18 | -42.62518 | 147.22346 | 10945 ft | 321 kts | 312° |
| 2026-05-06 22:18 | -42.60928 | 147.20189 | 11592 ft | 325 kts | 313° |
| 2026-05-06 22:18 | -42.59321 | 147.18010 | 12284 ft | 328 kts | 313° |
| 2026-05-06 22:18 | -42.57700 | 147.15815 | 12977 ft | 331 kts | 313° |